createdAt,value
2019-05-10T00:00:13.064Z,2.25
2019-05-10T00:02:59.746Z,2.35
2019-05-10T00:05:47.063Z,2.58
2019-05-10T00:08:33.774Z,5.40
2019-05-10T00:11:21.917Z,0.93
2019-05-10T00:13:55.452Z,1.47
2019-05-10T00:16:24.488Z,1.32
2019-05-10T00:18:52.978Z,2.33
2019-05-10T00:21:21.013Z,2.33
2019-05-10T00:23:48.974Z,1.32
2019-05-10T00:26:17.073Z,2.10
2019-05-10T00:28:45.211Z,1.20
2019-05-10T00:31:13.235Z,2.05
2019-05-10T00:33:41.305Z,2.37
2019-05-10T00:36:09.361Z,1.22
2019-05-10T00:38:37.330Z,2.05
2019-05-10T00:41:05.598Z,0.98
2019-05-10T00:43:34.252Z,1.60
2019-05-10T00:46:02.544Z,1.90
2019-05-10T00:48:30.518Z,1.67
2019-05-10T00:50:58.532Z,3.58
2019-05-10T00:53:26.547Z,1.82
2019-05-10T00:55:54.527Z,1.98
2019-05-10T00:58:22.536Z,0.90
2019-05-10T01:00:50.510Z,1.22
2019-05-10T01:03:18.521Z,2.35
2019-05-10T01:05:46.808Z,5.90
2019-05-10T01:08:15.188Z,3.25
2019-05-10T01:10:43.171Z,1.02
2019-05-10T01:13:11.163Z,1.15
2019-05-10T01:15:39.156Z,4.72
2019-05-10T01:18:07.148Z,1.62
2019-05-10T01:20:35.151Z,3.87
2019-05-10T01:23:03.115Z,1.12
2019-05-10T01:25:35.290Z,2.30
2019-05-10T01:28:00.989Z,1.27
2019-05-10T01:30:28.987Z,2.35
2019-05-10T01:32:57.357Z,2.05
2019-05-10T01:35:25.337Z,0.90
2019-05-10T01:37:53.375Z,2.65
2019-05-10T01:40:21.376Z,1.35
2019-05-10T01:42:49.483Z,2.35
2019-05-10T01:45:17.754Z,1.07
2019-05-10T01:47:46.577Z,1.82
2019-05-10T01:50:14.953Z,1.55
2019-05-10T01:52:43.063Z,2.37
2019-05-10T01:55:11.095Z,1.75
2019-05-10T01:57:40.726Z,1.87
2019-05-10T02:00:09.829Z,0.90
2019-05-10T02:02:37.923Z,1.98
2019-05-10T02:05:07.257Z,1.47
2019-05-10T02:07:35.253Z,1.30
2019-05-10T02:10:04.473Z,2.27
2019-05-10T02:12:32.797Z,1.92
2019-05-10T02:15:00.921Z,1.30
2019-05-10T02:17:28.859Z,2.75
2019-05-10T02:19:56.838Z,1.75
2019-05-10T02:22:24.811Z,2.37
2019-05-10T02:24:52.788Z,1.77
2019-05-10T02:27:20.793Z,1.20
2019-05-10T02:29:49.239Z,2.17
2019-05-10T02:32:17.246Z,1.85
2019-05-10T02:34:45.196Z,1.05
2019-05-10T02:37:13.236Z,2.50
2019-05-10T02:39:41.309Z,0.98
2019-05-10T02:42:09.615Z,1.65
2019-05-10T02:44:38.709Z,2.47
2019-05-10T02:47:06.677Z,1.17
2019-05-10T02:49:34.657Z,3.20
2019-05-10T02:52:03.225Z,1.15
2019-05-10T02:54:31.187Z,4.78
2019-05-10T02:57:00.984Z,3.87
2019-05-10T02:59:30.075Z,1.98
2019-05-10T03:01:59.890Z,1.00
2019-05-10T03:04:27.858Z,3.77
2019-05-10T03:07:03.360Z,2.02
2019-05-10T03:09:34.034Z,1.52
2019-05-10T03:12:21.237Z,1.75
2019-05-10T03:14:53.363Z,1.70
2019-05-10T03:17:21.655Z,2.10
2019-05-10T03:19:52.643Z,1.07
2019-05-10T03:22:21.475Z,0.90
2019-05-10T03:24:49.515Z,2.20
2019-05-10T03:27:17.516Z,1.37
2019-05-10T03:29:46.274Z,1.90
2019-05-10T03:32:14.308Z,1.75
2019-05-10T03:34:42.726Z,1.30
2019-05-10T03:37:10.707Z,3.27
2019-05-10T03:39:38.762Z,1.05
2019-05-10T03:42:06.729Z,1.30
2019-05-10T03:44:34.705Z,2.70
2019-05-10T03:47:02.702Z,1.55
2019-05-10T03:49:30.702Z,1.37
2019-05-10T03:51:58.718Z,1.17
2019-05-10T03:54:26.980Z,1.27
2019-05-10T03:57:11.043Z,1.40
2019-05-10T03:59:24.870Z,2.83
2019-05-10T04:01:53.222Z,2.45
2019-05-10T04:04:21.229Z,2.20
2019-05-10T04:06:49.196Z,1.42
2019-05-10T04:09:17.471Z,1.52
2019-05-10T04:11:46.020Z,1.70
2019-05-10T04:14:14.008Z,1.05
2019-05-10T04:16:42.272Z,0.82
2019-05-10T04:19:11.318Z,0.62
2019-05-10T04:21:39.773Z,3.98
2019-05-10T04:24:07.776Z,2.45
2019-05-10T04:26:35.800Z,1.87
2019-05-10T04:29:03.789Z,3.02
2019-05-10T04:31:31.781Z,1.60
2019-05-10T04:33:59.789Z,2.30
2019-05-10T04:36:27.778Z,0.72
2019-05-10T04:38:55.851Z,1.90
2019-05-10T04:41:24.226Z,1.37
2019-05-10T04:43:52.197Z,1.20
2019-05-10T04:46:20.206Z,1.85
2019-05-10T04:48:48.185Z,3.02
2019-05-10T04:51:16.173Z,1.70
2019-05-10T04:53:44.490Z,1.15
2019-05-10T04:56:12.877Z,1.40
2019-05-10T04:58:41.942Z,0.90
2019-05-10T05:01:09.957Z,2.58
2019-05-10T05:03:37.918Z,2.47
2019-05-10T05:06:05.932Z,1.85
2019-05-10T05:08:33.950Z,1.42
2019-05-10T05:11:01.951Z,1.75
2019-05-10T05:13:30.198Z,1.65
2019-05-10T05:15:58.472Z,2.30
2019-05-10T05:18:27.126Z,7.00
2019-05-10T05:20:55.205Z,2.35
2019-05-10T05:23:23.204Z,1.12
2019-05-10T05:25:51.573Z,1.52
2019-05-10T05:28:23.156Z,1.27
2019-05-10T05:30:49.882Z,1.02
2019-05-10T05:33:17.891Z,3.70
2019-05-10T05:35:46.227Z,1.37
2019-05-10T05:38:14.273Z,1.40
2019-05-10T05:40:42.266Z,1.35
2019-05-10T05:43:10.373Z,1.67
2019-05-10T05:45:38.704Z,2.37
2019-05-10T05:48:06.692Z,2.10
2019-05-10T05:50:34.860Z,0.85
2019-05-10T05:53:03.130Z,2.45
2019-05-10T05:55:32.282Z,3.60
2019-05-10T05:58:05.037Z,2.20
2019-05-10T06:00:31.025Z,2.45
2019-05-10T06:02:59.194Z,2.60
2019-05-10T06:05:34.258Z,1.55
2019-05-10T06:07:57.113Z,2.20
2019-05-10T06:10:25.098Z,1.92
2019-05-10T06:12:53.193Z,1.35
2019-05-10T06:15:23.268Z,3.20
2019-05-10T06:17:57.166Z,2.25
2019-05-10T06:20:22.852Z,3.52
2019-05-10T06:23:06.010Z,2.22
2019-05-10T06:25:38.057Z,1.60
2019-05-10T06:27:50.939Z,10.15
2019-05-10T06:30:19.333Z,2.55
2019-05-10T06:32:47.301Z,3.10
2019-05-10T06:35:19.527Z,10.45
2019-05-10T06:37:45.531Z,11.05
2019-05-10T06:40:13.520Z,8.38
2019-05-10T06:42:41.569Z,6.53
2019-05-10T06:45:14.660Z,7.00
2019-05-10T06:47:41.986Z,6.15
2019-05-10T06:50:10.643Z,6.45
2019-05-10T06:52:38.645Z,7.00
2019-05-10T06:55:07.419Z,5.30
2019-05-10T06:57:35.454Z,6.20
2019-05-10T07:00:06.842Z,11.60
2019-05-10T07:02:36.347Z,7.70
2019-05-10T07:05:05.880Z,6.78
2019-05-10T07:07:44.278Z,8.93
2019-05-10T07:10:13.104Z,5.83
2019-05-10T07:12:35.991Z,5.10
2019-05-10T07:15:05.838Z,7.67
2019-05-10T07:17:41.448Z,11.95
2019-05-10T07:20:07.253Z,7.62
2019-05-10T07:22:36.386Z,5.90
2019-05-10T07:25:07.636Z,12.35
2019-05-10T07:27:36.592Z,9.60
2019-05-10T07:30:06.433Z,7.33
2019-05-10T07:32:34.793Z,6.65
2019-05-10T07:35:03.052Z,9.78
2019-05-10T07:37:31.163Z,7.20
2019-05-10T07:39:59.181Z,6.92
2019-05-10T07:42:27.225Z,5.75
2019-05-10T07:44:55.569Z,4.83
2019-05-10T07:47:29.863Z,5.33
2019-05-10T07:49:53.777Z,5.75
2019-05-10T07:52:23.727Z,5.65
2019-05-10T07:54:51.733Z,5.65
2019-05-10T07:57:24.949Z,6.50
2019-05-10T07:59:51.085Z,5.97
2019-05-10T08:02:19.889Z,4.40
2019-05-10T08:04:51.323Z,5.53
2019-05-10T08:07:18.626Z,6.37
2019-05-10T08:09:48.704Z,3.47
2019-05-10T08:12:19.298Z,4.25
2019-05-10T08:14:50.102Z,5.15
2019-05-10T08:17:19.059Z,4.15
2019-05-10T08:19:46.704Z,4.03
2019-05-10T08:22:14.937Z,4.90
2019-05-10T08:24:46.434Z,6.97
2019-05-10T08:27:14.845Z,4.40
2019-05-10T08:29:43.308Z,4.10
2019-05-10T08:32:12.891Z,6.03
2019-05-10T08:34:51.680Z,12.25
2019-05-10T08:37:12.848Z,11.68
2019-05-10T08:39:45.666Z,11.20
2019-05-10T08:42:32.133Z,9.13
2019-05-10T08:44:42.710Z,10.20
2019-05-10T08:47:16.172Z,9.68
2019-05-10T08:49:55.073Z,8.60
2019-05-10T08:52:12.186Z,8.33
2019-05-10T08:54:42.287Z,6.50
2019-05-10T08:57:17.901Z,10.70
2019-05-10T08:59:42.627Z,9.58
2019-05-10T09:02:12.601Z,13.40
2019-05-10T09:04:43.645Z,11.93
2019-05-10T09:07:11.903Z,9.83
2019-05-10T09:09:45.812Z,9.98
2019-05-10T09:12:12.291Z,8.45
2019-05-10T09:14:42.550Z,13.93
2019-05-10T09:17:17.161Z,12.55
2019-05-10T09:19:43.505Z,7.37
2019-05-10T09:22:12.447Z,9.75
2019-05-10T09:24:48.311Z,7.37
2019-05-10T09:27:12.789Z,10.85
2019-05-10T09:29:43.042Z,12.00
2019-05-10T09:32:12.520Z,6.90
2019-05-10T09:34:42.601Z,7.80
2019-05-10T09:37:16.016Z,8.98
2019-05-10T09:39:42.403Z,6.75
2019-05-10T09:42:24.796Z,10.80
2019-05-10T09:44:40.605Z,7.17
2019-05-10T09:47:09.021Z,5.95
2019-05-10T09:49:37.069Z,6.85
2019-05-10T09:52:12.666Z,7.37
2019-05-10T09:54:35.559Z,8.73
2019-05-10T09:57:03.941Z,5.62
2019-05-10T09:59:32.118Z,7.87
2019-05-10T10:02:00.151Z,5.78
2019-05-10T10:04:28.332Z,8.43
2019-05-10T10:06:57.968Z,7.35
2019-05-10T10:09:33.911Z,5.17
2019-05-10T10:12:02.912Z,5.42
2019-05-10T10:14:28.428Z,6.22
2019-05-10T10:17:00.535Z,5.33
2019-05-10T10:19:27.815Z,3.77
2019-05-10T10:21:57.652Z,4.25
2019-05-10T10:24:28.342Z,4.85
2019-05-10T10:26:58.005Z,4.47
2019-05-10T10:29:28.684Z,3.65
2019-05-10T10:31:58.709Z,3.45
2019-05-10T10:34:27.205Z,5.42
2019-05-10T10:36:58.034Z,3.65
2019-05-10T10:39:27.727Z,2.83
2019-05-10T10:41:57.144Z,3.20
2019-05-10T10:44:27.110Z,3.75
2019-05-10T10:46:58.060Z,5.28
2019-05-10T10:49:27.987Z,3.98
2019-05-10T10:51:57.286Z,4.53
2019-05-10T10:54:28.645Z,3.12
2019-05-10T10:56:59.233Z,3.58
2019-05-10T10:59:25.421Z,4.90
2019-05-10T11:02:25.361Z,4.00
2019-05-10T11:04:23.306Z,5.00
2019-05-10T11:07:08.864Z,3.22
2019-05-10T11:09:21.236Z,2.83
2019-05-10T11:11:51.538Z,4.92
2019-05-10T11:14:20.625Z,2.47
2019-05-10T11:16:52.839Z,3.85
2019-05-10T11:19:20.459Z,4.83
2019-05-10T11:21:51.393Z,3.87
2019-05-10T11:24:20.811Z,3.08
2019-05-10T11:26:51.529Z,4.72
2019-05-10T11:29:27.836Z,3.55
2019-05-10T11:32:10.395Z,2.62
2019-05-10T11:34:21.687Z,4.08
2019-05-10T11:36:51.177Z,5.12
2019-05-10T11:39:26.043Z,3.55
2019-05-10T11:41:52.977Z,2.95
2019-05-10T11:44:22.050Z,3.87
2019-05-10T11:46:50.797Z,5.65
2019-05-10T11:49:20.403Z,5.83
2019-05-10T11:51:54.843Z,3.22
2019-05-10T11:54:21.391Z,3.98
2019-05-10T11:56:51.967Z,4.30
2019-05-10T11:59:21.802Z,4.40
2019-05-10T12:01:57.590Z,4.17
2019-05-10T12:04:28.911Z,7.78
2019-05-10T12:06:51.213Z,6.12
2019-05-10T12:09:21.311Z,6.95
2019-05-10T12:11:56.458Z,7.12
2019-05-10T12:14:21.881Z,8.08
2019-05-10T12:16:54.242Z,6.47
2019-05-10T12:19:21.373Z,6.05
2019-05-10T12:21:55.504Z,7.78
2019-05-10T12:24:39.223Z,8.03
2019-05-10T12:27:14.485Z,6.75
2019-05-10T12:29:21.393Z,7.58
2019-05-10T12:31:55.079Z,7.80
2019-05-10T12:34:20.746Z,8.85
2019-05-10T12:36:48.948Z,7.65
2019-05-10T12:39:16.996Z,8.73
2019-05-10T12:41:48.643Z,7.37
2019-05-10T12:44:15.512Z,6.87
2019-05-10T12:46:43.906Z,7.80
2019-05-10T12:49:12.104Z,7.83
2019-05-10T12:51:41.160Z,7.50
2019-05-10T12:54:11.300Z,7.62
2019-05-10T12:56:43.830Z,9.55
2019-05-10T12:59:09.471Z,8.20
2019-05-10T13:01:37.490Z,8.13
2019-05-10T13:04:13.313Z,6.70
2019-05-10T13:06:35.904Z,8.43
2019-05-10T13:09:06.198Z,8.03
2019-05-10T13:11:34.208Z,9.28
2019-05-10T13:14:07.284Z,8.03
2019-05-10T13:16:32.699Z,6.72
2019-05-10T13:19:00.692Z,7.67
2019-05-10T13:21:30.493Z,6.87
2019-05-10T13:23:58.744Z,7.60
2019-05-10T13:26:27.027Z,6.03
2019-05-10T13:28:55.421Z,8.73
2019-05-10T13:31:23.400Z,6.05
2019-05-10T13:33:51.500Z,6.37
2019-05-10T13:36:19.908Z,6.83
2019-05-10T13:38:49.488Z,7.75
2019-05-10T13:41:23.144Z,8.28
2019-05-10T13:43:48.212Z,7.47
2019-05-10T13:46:16.201Z,7.03
2019-05-10T13:48:44.229Z,7.10
2019-05-10T13:51:13.340Z,4.85
2019-05-10T13:53:41.504Z,8.00
2019-05-10T13:56:09.542Z,6.22
2019-05-10T13:58:37.564Z,6.75
2019-05-10T14:01:06.508Z,7.03
2019-05-10T14:03:43.753Z,6.83
2019-05-10T14:06:05.505Z,6.45
2019-05-10T14:08:33.896Z,6.17
2019-05-10T14:11:03.380Z,6.33
2019-05-10T14:13:35.728Z,6.47
2019-05-10T14:16:01.614Z,8.23
2019-05-10T14:18:29.631Z,7.28
2019-05-10T14:20:57.702Z,6.53
2019-05-10T14:23:29.148Z,5.78
2019-05-10T14:25:57.708Z,5.22
2019-05-10T14:28:25.890Z,5.50
2019-05-10T14:30:57.400Z,6.65
2019-05-10T14:33:23.892Z,6.78
2019-05-10T14:35:55.108Z,6.95
2019-05-10T14:38:23.016Z,6.25
2019-05-10T14:40:51.137Z,6.92
2019-05-10T14:43:19.172Z,5.30
2019-05-10T14:45:47.168Z,6.33
2019-05-10T14:48:15.181Z,4.85
2019-05-10T14:50:46.548Z,6.40
2019-05-10T14:53:13.102Z,6.40
2019-05-10T14:55:41.116Z,4.55
2019-05-10T14:58:09.099Z,6.25
2019-05-10T15:00:37.154Z,5.47
2019-05-10T15:03:05.473Z,4.60
2019-05-10T15:05:36.302Z,5.42
2019-05-10T15:08:03.470Z,5.67
2019-05-10T15:10:37.103Z,6.42
2019-05-10T15:13:02.204Z,5.22
2019-05-10T15:15:31.119Z,4.53
2019-05-10T15:18:01.874Z,4.60
2019-05-10T15:20:30.590Z,4.97
2019-05-10T15:22:58.968Z,6.12
2019-05-10T15:25:26.977Z,6.22
2019-05-10T15:28:00.116Z,5.25
2019-05-10T15:30:24.873Z,4.72
2019-05-10T15:32:52.899Z,4.80
2019-05-10T15:35:21.051Z,4.85
2019-05-10T15:37:49.233Z,5.28
2019-05-10T15:40:17.341Z,3.95
2019-05-10T15:42:45.359Z,3.67
2019-05-10T15:45:14.703Z,5.05
2019-05-10T15:47:51.264Z,6.50
2019-05-10T15:50:14.104Z,5.60
2019-05-10T15:52:46.451Z,4.12
2019-05-10T15:55:16.567Z,3.45
2019-05-10T15:57:43.839Z,4.40
2019-05-10T16:00:12.419Z,4.97
2019-05-10T16:02:40.561Z,4.25
2019-05-10T16:05:23.382Z,4.53
2019-05-10T16:07:38.942Z,4.72
2019-05-10T16:10:07.509Z,4.58
2019-05-10T16:12:37.799Z,3.75
2019-05-10T16:15:07.514Z,6.22
2019-05-10T16:17:35.779Z,4.37
2019-05-10T16:20:04.855Z,4.65
2019-05-10T16:22:33.256Z,5.00
2019-05-10T16:25:02.800Z,3.22
2019-05-10T16:27:33.841Z,3.20
2019-05-10T16:30:01.167Z,5.28
2019-05-10T16:32:34.694Z,3.75
2019-05-10T16:34:59.406Z,4.08
2019-05-10T16:37:27.390Z,5.72
2019-05-10T16:39:56.013Z,2.25
2019-05-10T16:42:27.798Z,3.00
2019-05-10T16:44:54.313Z,4.28
2019-05-10T16:47:22.699Z,4.53
2019-05-10T16:49:53.444Z,3.77
2019-05-10T16:52:25.862Z,3.35
2019-05-10T16:54:50.539Z,5.78
2019-05-10T16:57:18.571Z,3.27
2019-05-10T16:59:46.549Z,3.55
2019-05-10T17:02:14.615Z,3.72
2019-05-10T17:04:42.619Z,4.37
2019-05-10T17:07:13.070Z,5.95
2019-05-10T17:09:40.573Z,4.17
2019-05-10T17:12:08.961Z,2.55
2019-05-10T17:14:50.618Z,3.60
2019-05-10T17:17:19.993Z,2.12
2019-05-10T17:19:47.968Z,3.83
2019-05-10T17:22:15.941Z,2.05
2019-05-10T17:24:44.066Z,4.30
2019-05-10T17:27:12.067Z,1.82
2019-05-10T17:29:44.574Z,3.62
2019-05-10T17:32:09.979Z,2.87
2019-05-10T17:34:38.253Z,4.15
2019-05-10T17:37:06.228Z,4.03
2019-05-10T17:39:34.309Z,3.55
2019-05-10T17:42:03.621Z,4.12
2019-05-10T17:44:32.492Z,5.25
2019-05-10T17:47:00.463Z,2.22
2019-05-10T17:49:28.469Z,2.47
2019-05-10T17:51:56.459Z,2.95
2019-05-10T17:54:24.426Z,4.42
2019-05-10T17:56:52.537Z,2.83
2019-05-10T17:59:20.943Z,3.95
2019-05-10T18:01:49.103Z,2.35
2019-05-10T18:04:17.081Z,2.37
2019-05-10T18:06:45.115Z,5.47
2019-05-10T18:09:13.502Z,2.60
2019-05-10T18:11:42.745Z,3.70
2019-05-10T18:14:12.528Z,3.42
2019-05-10T18:16:41.865Z,2.70
2019-05-10T18:19:12.042Z,2.58
2019-05-10T18:21:40.088Z,2.22
2019-05-10T18:24:08.092Z,2.55
2019-05-10T18:26:39.699Z,2.58
2019-05-10T18:29:05.932Z,1.40
2019-05-10T18:31:33.930Z,2.35
2019-05-10T18:34:01.894Z,2.35
2019-05-10T18:36:50.672Z,2.22
2019-05-10T18:39:00.472Z,3.12
2019-05-10T18:41:28.660Z,2.33
2019-05-10T18:43:56.668Z,1.40
2019-05-10T18:46:24.802Z,2.58
2019-05-10T18:48:53.980Z,4.42
2019-05-10T18:51:24.549Z,2.05
2019-05-10T18:53:51.854Z,3.08
2019-05-10T18:56:25.269Z,1.87
2019-05-10T18:58:49.989Z,2.27
2019-05-10T19:01:18.330Z,1.75
2019-05-10T19:03:46.330Z,2.08
2019-05-10T19:06:14.305Z,2.58
2019-05-10T19:08:44.062Z,2.27
2019-05-10T19:11:12.233Z,1.95
2019-05-10T19:13:47.303Z,2.22
2019-05-10T19:16:10.195Z,1.25
2019-05-10T19:18:38.256Z,4.25
2019-05-10T19:21:06.790Z,2.33
2019-05-10T19:23:34.748Z,2.15
2019-05-10T19:26:02.704Z,1.75
2019-05-10T19:28:30.680Z,2.08
2019-05-10T19:31:00.430Z,2.35
2019-05-10T19:33:35.977Z,1.70
2019-05-10T19:35:58.537Z,2.75
2019-05-10T19:38:26.639Z,4.42
2019-05-10T19:40:55.890Z,14.78
2019-05-10T19:43:24.171Z,11.43
2019-05-10T19:45:57.577Z,6.95
2019-05-10T19:48:22.664Z,4.03
2019-05-10T19:50:50.666Z,4.60
2019-05-10T19:53:18.784Z,2.40
2019-05-10T19:55:51.321Z,3.20
2019-05-10T19:58:17.522Z,1.82
2019-05-10T20:00:45.610Z,5.08
2019-05-10T20:03:13.622Z,1.70
2019-05-10T20:05:41.672Z,1.60
2019-05-10T20:08:09.656Z,1.65
2019-05-10T20:10:37.698Z,3.08
2019-05-10T20:13:06.213Z,2.95
2019-05-10T20:15:34.492Z,2.12
2019-05-10T20:18:02.553Z,1.90
2019-05-10T20:20:30.669Z,2.35
2019-05-10T20:22:59.422Z,2.70
2019-05-10T20:25:27.415Z,2.83
2019-05-10T20:27:55.610Z,5.70
2019-05-10T20:30:23.592Z,1.52
2019-05-10T20:32:52.002Z,6.08
2019-05-10T20:35:20.064Z,2.02
2019-05-10T20:38:00.853Z,2.25
2019-05-10T20:40:18.330Z,3.60
2019-05-10T20:42:46.436Z,2.90
2019-05-10T20:45:14.894Z,4.58
2019-05-10T20:47:42.956Z,1.40
2019-05-10T20:50:11.499Z,1.87
2019-05-10T20:52:39.828Z,1.32
2019-05-10T20:55:08.171Z,0.68
2019-05-10T20:57:36.135Z,1.52
2019-05-10T21:00:05.824Z,1.35
2019-05-10T21:02:34.825Z,1.95
2019-05-10T21:05:03.905Z,2.00
2019-05-10T21:07:32.032Z,1.27
2019-05-10T21:10:00.082Z,1.62
2019-05-10T21:12:28.436Z,3.22
2019-05-10T21:14:56.548Z,1.67
2019-05-10T21:17:25.072Z,1.00
2019-05-10T21:19:53.161Z,2.00
2019-05-10T21:22:21.351Z,3.22
2019-05-10T21:24:49.630Z,1.15
2019-05-10T21:27:17.666Z,0.80
2019-05-10T21:29:45.739Z,3.60
2019-05-10T21:32:13.731Z,0.80
2019-05-10T21:34:41.730Z,0.40
2019-05-10T21:37:09.800Z,0.82
2019-05-10T21:39:37.835Z,1.20
2019-05-10T21:42:05.844Z,2.87
2019-05-10T21:44:33.869Z,1.20
2019-05-10T21:47:01.855Z,0.82
2019-05-10T21:49:30.254Z,1.25
2019-05-10T21:51:58.277Z,0.50
2019-05-10T21:54:26.334Z,1.12
2019-05-10T21:56:54.417Z,1.10
2019-05-10T21:59:22.489Z,1.00
2019-05-10T22:01:50.840Z,0.93
2019-05-10T22:04:18.858Z,1.47
2019-05-10T22:06:46.851Z,1.15
2019-05-10T22:09:14.876Z,2.35
2019-05-10T22:11:43.225Z,2.52
2019-05-10T22:14:11.271Z,9.13
2019-05-10T22:16:39.580Z,5.15
2019-05-10T22:19:07.564Z,1.52
2019-05-10T22:21:35.592Z,0.62
2019-05-10T22:24:04.819Z,2.72
2019-05-10T22:26:32.792Z,4.37
2019-05-10T22:29:00.848Z,2.42
2019-05-10T22:31:28.833Z,0.93
2019-05-10T22:33:56.838Z,0.93
2019-05-10T22:36:24.795Z,1.95
2019-05-10T22:39:08.195Z,2.85
2019-05-10T22:41:36.158Z,1.60
2019-05-10T22:44:04.536Z,2.35
2019-05-10T22:46:32.796Z,2.77
2019-05-10T22:49:01.094Z,2.00
2019-05-10T22:51:29.088Z,2.90
2019-05-10T22:53:59.989Z,2.30
2019-05-10T22:56:26.954Z,2.47
2019-05-10T22:58:55.036Z,2.52
2019-05-10T23:01:24.268Z,3.90
2019-05-10T23:03:52.391Z,5.08
2019-05-10T23:06:20.355Z,5.10
2019-05-10T23:08:48.458Z,5.22
2019-05-10T23:11:16.819Z,3.85
2019-05-10T23:13:44.884Z,6.30
2019-05-10T23:16:12.924Z,6.22
2019-05-10T23:18:40.982Z,8.28
2019-05-10T23:21:09.014Z,7.10
2019-05-10T23:23:37.294Z,4.33
2019-05-10T23:26:06.720Z,5.55
2019-05-10T23:28:34.836Z,6.33
2019-05-10T23:31:03.553Z,6.67
2019-05-10T23:33:31.568Z,11.63
2019-05-10T23:35:59.758Z,7.05
2019-05-10T23:38:27.786Z,6.83
2019-05-10T23:40:55.793Z,8.05
2019-05-10T23:43:23.774Z,6.70
2019-05-10T23:45:51.764Z,7.00
2019-05-10T23:48:19.768Z,5.78
2019-05-10T23:50:47.730Z,5.47
2019-05-10T23:53:15.711Z,6.47
2019-05-10T23:55:43.726Z,7.10
2019-05-10T23:58:11.751Z,6.83
